createdAt,value
2022-11-29T00:01:32.408Z,6.59
2022-11-29T00:03:59.845Z,6.60
2022-11-29T00:06:30.881Z,6.62
2022-11-29T00:09:06.168Z,6.49
2022-11-29T00:11:54.297Z,6.64
2022-11-29T00:14:22.875Z,6.64
2022-11-29T00:16:52.829Z,6.63
2022-11-29T00:19:20.579Z,6.63
2022-11-29T00:21:47.619Z,6.65
2022-11-29T00:24:14.927Z,6.65
2022-11-29T00:26:41.954Z,6.65
2022-11-29T00:29:11.959Z,6.65
2022-11-29T00:31:40.015Z,6.65
2022-11-29T00:34:07.688Z,6.69
2022-11-29T00:36:35.550Z,6.69
2022-11-29T00:39:04.945Z,6.51
2022-11-29T00:41:32.650Z,6.67
2022-11-29T00:43:59.713Z,6.67
2022-11-29T00:46:26.877Z,6.68
2022-11-29T00:48:53.898Z,6.68
2022-11-29T00:51:20.905Z,6.69
2022-11-29T00:53:48.104Z,6.68
2022-11-29T00:56:15.308Z,6.72
2022-11-29T00:58:43.493Z,6.72
2022-11-29T01:01:11.643Z,6.70
2022-11-29T01:03:38.905Z,6.49
2022-11-29T01:06:15.370Z,6.67
2022-11-29T01:08:43.163Z,6.68
2022-11-29T01:11:22.374Z,6.30
2022-11-29T01:13:51.241Z,6.71
2022-11-29T01:16:18.622Z,6.69
2022-11-29T01:18:45.753Z,6.72
2022-11-29T01:21:22.819Z,6.72
2022-11-29T01:23:51.488Z,6.73
2022-11-29T01:26:24.483Z,6.73
2022-11-29T01:28:53.638Z,6.73
2022-11-29T01:31:24.503Z,6.73
2022-11-29T01:33:55.531Z,6.74
2022-11-29T01:36:23.750Z,6.75
2022-11-29T01:38:51.501Z,6.77
2022-11-29T01:41:22.326Z,6.77
2022-11-29T01:43:58.663Z,6.75
2022-11-29T01:46:27.074Z,6.78
2022-11-29T01:48:57.424Z,6.76
2022-11-29T01:51:27.460Z,6.75
2022-11-29T01:53:55.707Z,6.77
2022-11-29T01:56:24.207Z,6.74
2022-11-29T01:58:51.641Z,6.75
2022-11-29T02:01:18.951Z,6.77
2022-11-29T02:03:46.619Z,6.81
2022-11-29T02:06:15.847Z,6.83
2022-11-29T02:08:43.735Z,6.90
2022-11-29T02:11:28.940Z,6.87
2022-11-29T02:14:33.041Z,6.88
2022-11-29T02:17:30.858Z,6.90
2022-11-29T02:20:00.596Z,6.90
2022-11-29T02:22:41.248Z,6.86
2022-11-29T02:25:32.571Z,6.87
2022-11-29T02:28:33.892Z,6.87
2022-11-29T02:31:33.494Z,6.84
2022-11-29T02:34:06.295Z,6.86
2022-11-29T02:36:36.217Z,6.85
2022-11-29T02:39:15.141Z,6.86
2022-11-29T02:42:12.701Z,6.85
2022-11-29T02:44:54.187Z,6.87
2022-11-29T02:47:32.476Z,6.82
2022-11-29T02:50:08.180Z,6.91
2022-11-29T02:52:47.645Z,6.93
2022-11-29T02:55:29.569Z,6.93
2022-11-29T02:58:06.261Z,6.93
2022-11-29T03:00:38.989Z,6.93
2022-11-29T03:03:31.656Z,6.96
2022-11-29T03:06:36.218Z,6.58
2022-11-29T03:09:17.337Z,6.95
2022-11-29T03:12:07.704Z,7.01
2022-11-29T03:14:59.293Z,6.98
2022-11-29T03:17:40.657Z,6.98
2022-11-29T03:20:23.848Z,6.98
2022-11-29T03:23:14.853Z,6.97
2022-11-29T03:25:54.942Z,6.95
2022-11-29T03:28:28.888Z,6.93
2022-11-29T03:31:11.272Z,6.96
2022-11-29T03:33:54.778Z,6.99
2022-11-29T03:36:30.833Z,7.01
2022-11-29T03:39:03.009Z,7.02
2022-11-29T03:41:39.143Z,7.01
2022-11-29T03:44:18.837Z,7.03
2022-11-29T03:47:04.578Z,7.02
2022-11-29T03:49:47.354Z,7.05
2022-11-29T03:52:14.248Z,7.06
2022-11-29T03:55:08.912Z,7.06
2022-11-29T03:58:01.839Z,7.06
2022-11-29T04:00:50.682Z,7.07
2022-11-29T04:03:37.414Z,7.05
2022-11-29T04:06:24.376Z,7.07
2022-11-29T04:09:43.105Z,7.06
2022-11-29T04:12:28.943Z,7.11
2022-11-29T04:15:32.541Z,7.11
2022-11-29T04:18:36.403Z,7.11
2022-11-29T04:21:39.572Z,6.72
2022-11-29T04:24:24.591Z,7.07
2022-11-29T04:27:10.234Z,7.08
2022-11-29T04:30:08.246Z,7.12
2022-11-29T04:33:10.090Z,7.15
2022-11-29T04:36:12.293Z,7.14
2022-11-29T04:38:39.222Z,7.14
2022-11-29T04:41:19.749Z,7.15
2022-11-29T04:44:07.891Z,7.17
2022-11-29T04:47:03.388Z,7.21
2022-11-29T04:50:01.890Z,7.07
2022-11-29T04:52:40.944Z,7.19
2022-11-29T04:56:02.062Z,7.20
2022-11-29T04:59:04.563Z,7.20
2022-11-29T05:01:50.376Z,7.17
2022-11-29T05:04:26.848Z,7.20
2022-11-29T05:07:11.698Z,6.93
2022-11-29T05:09:55.284Z,7.22
2022-11-29T05:12:29.407Z,7.17
2022-11-29T05:15:17.097Z,7.15
2022-11-29T05:17:58.567Z,7.27
2022-11-29T05:20:41.884Z,7.34
2022-11-29T05:23:46.280Z,7.26
2022-11-29T05:26:22.633Z,7.21
2022-11-29T05:29:05.035Z,7.19
2022-11-29T05:31:55.110Z,7.23
2022-11-29T05:34:35.222Z,7.26
2022-11-29T05:37:11.503Z,7.30
2022-11-29T05:39:47.281Z,7.29
2022-11-29T05:42:44.876Z,7.25
2022-11-29T05:45:24.484Z,7.22
2022-11-29T05:48:02.122Z,7.25
2022-11-29T05:51:03.244Z,7.31
2022-11-29T05:53:39.899Z,6.88
2022-11-29T05:56:44.741Z,7.26
2022-11-29T05:59:28.565Z,7.09
2022-11-29T06:02:04.809Z,7.30
2022-11-29T06:04:39.386Z,7.35
2022-11-29T06:07:26.688Z,6.94
2022-11-29T06:10:02.056Z,7.30
2022-11-29T06:12:35.624Z,7.22
2022-11-29T06:15:33.725Z,7.35
2022-11-29T06:18:49.356Z,7.35
2022-11-29T06:21:38.386Z,7.37
2022-11-29T06:24:21.940Z,7.41
2022-11-29T06:27:10.454Z,7.53
2022-11-29T06:30:07.315Z,7.47
2022-11-29T06:33:01.233Z,7.40
2022-11-29T06:35:40.735Z,7.38
2022-11-29T06:38:20.258Z,7.23
2022-11-29T06:40:48.624Z,7.37
2022-11-29T06:43:16.073Z,7.38
2022-11-29T06:45:50.307Z,7.52
2022-11-29T06:48:25.380Z,7.51
2022-11-29T06:51:08.239Z,7.52
2022-11-29T06:53:53.994Z,7.51
2022-11-29T06:56:41.406Z,7.59
2022-11-29T06:59:27.393Z,7.58
2022-11-29T07:02:20.838Z,7.62
2022-11-29T07:05:12.736Z,7.61
2022-11-29T07:07:41.623Z,7.53
2022-11-29T07:10:15.479Z,7.55
2022-11-29T07:12:43.892Z,7.56
2022-11-29T07:15:20.208Z,7.55
2022-11-29T07:18:02.980Z,7.57
2022-11-29T07:20:42.651Z,7.60
2022-11-29T07:23:25.352Z,7.54
2022-11-29T07:26:10.877Z,7.59
2022-11-29T07:28:56.594Z,7.63
2022-11-29T07:31:45.437Z,7.72
2022-11-29T07:34:38.875Z,7.75
2022-11-29T07:37:52.840Z,7.69
2022-11-29T07:40:26.513Z,7.66
2022-11-29T07:43:17.573Z,7.84
2022-11-29T07:45:45.716Z,7.81
2022-11-29T07:48:13.260Z,7.86
2022-11-29T07:50:40.993Z,7.71
2022-11-29T07:53:15.583Z,7.60
2022-11-29T07:55:42.895Z,7.60
2022-11-29T07:58:12.560Z,7.91
2022-11-29T08:00:40.493Z,7.80
2022-11-29T08:03:08.468Z,7.95
2022-11-29T08:05:36.945Z,7.95
2022-11-29T08:08:04.654Z,7.61
2022-11-29T08:10:31.952Z,8.22
2022-11-29T08:12:58.957Z,8.17
2022-11-29T08:15:26.066Z,8.15
2022-11-29T08:17:53.326Z,7.98
2022-11-29T08:20:20.402Z,8.13
2022-11-29T08:22:58.542Z,8.14
2022-11-29T08:25:27.341Z,8.23
2022-11-29T08:27:54.842Z,8.25
2022-11-29T08:30:22.605Z,8.21
2022-11-29T08:32:51.772Z,7.75
2022-11-29T08:35:21.259Z,8.18
2022-11-29T08:37:48.769Z,8.30
2022-11-29T08:40:16.641Z,8.27
2022-11-29T08:42:43.644Z,8.22
2022-11-29T08:45:11.351Z,8.21
2022-11-29T08:47:41.027Z,8.18
2022-11-29T08:50:16.591Z,8.03
2022-11-29T08:53:04.521Z,7.86
2022-11-29T08:55:34.785Z,8.13
2022-11-29T08:58:08.175Z,7.97
2022-11-29T09:00:37.255Z,8.17
2022-11-29T09:03:25.172Z,7.91
2022-11-29T09:05:52.830Z,8.26
2022-11-29T09:08:20.060Z,8.13
2022-11-29T09:10:47.461Z,8.20
2022-11-29T09:13:14.932Z,8.33
2022-11-29T09:15:43.352Z,8.30
2022-11-29T09:18:10.467Z,8.44
2022-11-29T09:20:37.441Z,8.44
2022-11-29T09:23:04.702Z,8.50
2022-11-29T09:25:31.748Z,8.37
2022-11-29T09:28:01.786Z,8.44
2022-11-29T09:30:32.395Z,8.13
2022-11-29T09:33:02.588Z,8.47
2022-11-29T09:35:29.916Z,8.36
2022-11-29T09:37:56.958Z,8.39
2022-11-29T09:40:33.863Z,8.16
2022-11-29T09:43:14.053Z,8.43
2022-11-29T09:45:45.361Z,8.50
2022-11-29T09:48:30.968Z,8.49
2022-11-29T09:51:27.353Z,8.51
2022-11-29T09:54:12.779Z,8.54
2022-11-29T09:56:46.331Z,8.39
2022-11-29T09:59:31.526Z,8.55
2022-11-29T10:02:06.046Z,8.59
2022-11-29T10:04:40.279Z,8.60
2022-11-29T10:07:27.958Z,8.57
2022-11-29T10:10:06.742Z,8.73
2022-11-29T10:13:04.982Z,8.68
2022-11-29T10:15:39.090Z,8.20
2022-11-29T10:18:24.489Z,8.81
2022-11-29T10:20:57.462Z,8.75
2022-11-29T10:23:24.467Z,8.72
2022-11-29T10:25:54.309Z,8.68
2022-11-29T10:28:25.777Z,8.74
2022-11-29T10:30:54.513Z,8.76
2022-11-29T10:33:28.919Z,8.82
2022-11-29T10:35:59.329Z,8.87
2022-11-29T10:38:31.162Z,8.93
2022-11-29T10:41:09.528Z,9.08
2022-11-29T10:43:37.700Z,9.14
2022-11-29T10:46:06.339Z,9.20
2022-11-29T10:48:34.154Z,8.94
2022-11-29T10:51:01.590Z,9.16
2022-11-29T10:53:37.004Z,9.35
2022-11-29T10:56:08.703Z,9.48
2022-11-29T10:58:36.456Z,9.66
2022-11-29T11:01:08.506Z,9.83
2022-11-29T11:03:52.810Z,9.62
2022-11-29T11:06:23.124Z,9.76
2022-11-29T11:08:54.428Z,9.67
2022-11-29T11:11:31.312Z,9.96
2022-11-29T11:14:18.567Z,10.02
2022-11-29T11:16:45.608Z,10.14
2022-11-29T11:19:28.542Z,10.23
2022-11-29T11:21:56.375Z,10.18
2022-11-29T11:24:32.223Z,10.29
2022-11-29T11:27:00.446Z,9.92
2022-11-29T11:29:39.545Z,10.35
2022-11-29T11:32:18.622Z,10.46
2022-11-29T11:34:57.499Z,10.27
2022-11-29T11:37:33.033Z,9.96
2022-11-29T11:40:31.429Z,10.13
2022-11-29T11:43:01.148Z,10.22
2022-11-29T11:45:36.633Z,10.10
2022-11-29T11:48:15.400Z,10.19
2022-11-29T11:50:45.105Z,10.40
2022-11-29T11:53:27.463Z,10.31
2022-11-29T11:55:59.098Z,10.44
2022-11-29T11:58:32.705Z,10.53
2022-11-29T12:01:14.518Z,10.30
2022-11-29T12:03:56.804Z,10.48
2022-11-29T12:06:48.676Z,10.55
2022-11-29T12:09:37.351Z,10.60
2022-11-29T12:12:21.150Z,10.15
2022-11-29T12:14:52.672Z,10.05
2022-11-29T12:17:41.281Z,9.98
2022-11-29T12:20:23.976Z,10.00
2022-11-29T12:23:11.027Z,9.52
2022-11-29T12:25:51.857Z,9.85
2022-11-29T12:28:21.029Z,9.70
2022-11-29T12:31:26.803Z,9.86
2022-11-29T12:34:05.683Z,10.08
2022-11-29T12:37:02.468Z,9.62
2022-11-29T12:39:57.642Z,9.90
2022-11-29T12:42:38.302Z,9.78
2022-11-29T12:45:19.548Z,9.56
2022-11-29T12:48:05.037Z,9.66
2022-11-29T12:50:59.779Z,9.37
2022-11-29T12:54:12.017Z,9.52
2022-11-29T12:57:05.297Z,9.48
2022-11-29T12:59:50.897Z,9.53
2022-11-29T13:02:54.419Z,9.53
2022-11-29T13:05:30.554Z,9.57
2022-11-29T13:08:16.477Z,9.60
2022-11-29T13:10:58.063Z,9.42
2022-11-29T13:13:39.552Z,9.72
2022-11-29T13:16:25.079Z,9.46
2022-11-29T13:19:04.519Z,9.42
2022-11-29T13:21:55.439Z,9.30
2022-11-29T13:24:32.320Z,9.32
2022-11-29T13:27:03.921Z,9.21
2022-11-29T13:29:31.308Z,9.27
2022-11-29T13:31:58.845Z,9.37
2022-11-29T13:34:36.233Z,9.32
2022-11-29T13:37:26.590Z,9.34
2022-11-29T13:40:38.118Z,9.22
2022-11-29T13:43:23.501Z,9.32
2022-11-29T13:46:19.510Z,9.20
2022-11-29T13:48:47.774Z,9.19
2022-11-29T13:51:25.854Z,9.19
2022-11-29T13:53:55.029Z,9.12
2022-11-29T13:56:36.053Z,9.26
2022-11-29T13:59:08.813Z,9.25
2022-11-29T14:01:50.909Z,9.13
2022-11-29T14:04:35.976Z,9.29
2022-11-29T14:07:07.552Z,9.32
2022-11-29T14:09:42.025Z,8.92
2022-11-29T14:12:26.317Z,9.09
2022-11-29T14:15:18.235Z,9.22
2022-11-29T14:17:52.656Z,9.28
2022-11-29T14:20:22.722Z,9.21
2022-11-29T14:23:14.436Z,8.82
2022-11-29T14:26:02.969Z,9.10
2022-11-29T14:28:32.629Z,8.97
2022-11-29T14:31:04.882Z,9.00
2022-11-29T14:33:46.188Z,8.99
2022-11-29T14:36:18.924Z,8.89
2022-11-29T14:39:01.992Z,8.86
2022-11-29T14:41:50.573Z,8.77
2022-11-29T14:44:24.613Z,8.55
2022-11-29T14:47:06.413Z,8.88
2022-11-29T14:49:41.795Z,8.88
2022-11-29T14:52:18.733Z,8.85
2022-11-29T14:54:56.585Z,8.74
2022-11-29T14:57:51.724Z,8.74
2022-11-29T15:00:23.294Z,8.69
2022-11-29T15:02:57.814Z,8.69
2022-11-29T15:05:31.972Z,8.68
2022-11-29T15:08:13.118Z,8.69
2022-11-29T15:10:44.820Z,8.65
2022-11-29T15:13:18.693Z,8.64
2022-11-29T15:16:19.901Z,8.62
2022-11-29T15:19:18.092Z,8.58
2022-11-29T15:22:17.471Z,8.50
2022-11-29T15:24:52.837Z,8.51
2022-11-29T15:27:20.304Z,8.56
2022-11-29T15:29:50.485Z,8.45
2022-11-29T15:32:32.582Z,8.45
2022-11-29T15:34:59.869Z,8.42
2022-11-29T15:37:36.568Z,8.39
2022-11-29T15:40:10.675Z,8.36
2022-11-29T15:42:44.085Z,8.17
2022-11-29T15:45:26.004Z,8.28
2022-11-29T15:47:53.514Z,8.27
2022-11-29T15:50:31.939Z,8.25
2022-11-29T15:53:07.810Z,8.02
2022-11-29T15:55:35.714Z,8.26
2022-11-29T15:58:08.668Z,8.28
2022-11-29T16:00:36.684Z,8.27
2022-11-29T16:03:05.342Z,8.26
2022-11-29T16:05:36.178Z,8.26
2022-11-29T16:08:07.744Z,8.23
2022-11-29T16:10:40.152Z,8.21
2022-11-29T16:13:25.757Z,8.21
2022-11-29T16:16:23.354Z,8.19
2022-11-29T16:18:51.032Z,8.13
2022-11-29T16:21:31.056Z,8.25
2022-11-29T16:23:58.809Z,8.25
2022-11-29T16:26:35.725Z,8.28
2022-11-29T16:29:02.808Z,7.87
2022-11-29T16:31:38.325Z,8.32
2022-11-29T16:34:18.447Z,8.26
2022-11-29T16:36:45.772Z,8.23
2022-11-29T16:39:23.666Z,8.24
2022-11-29T16:42:12.226Z,8.22
2022-11-29T16:44:39.464Z,8.16
2022-11-29T16:47:18.703Z,8.12
2022-11-29T16:49:46.341Z,8.13
2022-11-29T16:52:28.374Z,8.14
2022-11-29T16:54:55.518Z,8.17
2022-11-29T16:57:22.884Z,8.03
2022-11-29T16:59:50.454Z,8.14
2022-11-29T17:02:17.900Z,8.10
2022-11-29T17:04:45.479Z,8.14
2022-11-29T17:07:27.939Z,8.09
2022-11-29T17:09:55.997Z,7.65
2022-11-29T17:12:23.026Z,8.19
2022-11-29T17:14:50.037Z,8.15
2022-11-29T17:17:19.545Z,8.14
2022-11-29T17:19:46.589Z,8.14
2022-11-29T17:22:13.828Z,8.18
2022-11-29T17:24:46.221Z,8.16
2022-11-29T17:27:14.962Z,8.17
2022-11-29T17:29:41.993Z,8.09
2022-11-29T17:32:10.254Z,7.95
2022-11-29T17:34:37.321Z,7.83
2022-11-29T17:37:04.310Z,8.16
2022-11-29T17:39:31.913Z,8.16
2022-11-29T17:41:58.914Z,8.12
2022-11-29T17:44:25.968Z,8.20
2022-11-29T17:46:53.014Z,8.18
2022-11-29T17:49:20.057Z,8.14
2022-11-29T17:51:53.066Z,8.10
2022-11-29T17:54:21.394Z,8.20
2022-11-29T17:56:49.427Z,7.74
2022-11-29T17:59:16.549Z,7.83
2022-11-29T18:01:43.726Z,7.92
2022-11-29T18:04:10.805Z,7.87
2022-11-29T18:06:40.088Z,7.87
2022-11-29T18:09:09.344Z,7.86
2022-11-29T18:11:46.363Z,7.83
2022-11-29T18:14:23.619Z,7.74
2022-11-29T18:16:51.404Z,7.65
2022-11-29T18:19:20.259Z,7.49
2022-11-29T18:21:51.571Z,7.67
2022-11-29T18:24:18.932Z,7.67
2022-11-29T18:26:46.023Z,7.63
2022-11-29T18:29:13.113Z,7.65
2022-11-29T18:31:43.070Z,7.37
2022-11-29T18:34:11.819Z,7.64
2022-11-29T18:36:44.930Z,7.64
2022-11-29T18:39:14.981Z,7.62
2022-11-29T18:41:44.593Z,7.59
2022-11-29T18:44:14.114Z,7.58
2022-11-29T18:46:43.432Z,7.57
2022-11-29T18:49:13.611Z,7.58
2022-11-29T18:51:44.240Z,7.59
2022-11-29T18:54:11.482Z,7.56
2022-11-29T18:56:38.747Z,7.58
2022-11-29T18:59:11.457Z,7.53
2022-11-29T19:01:43.127Z,7.42
2022-11-29T19:04:12.738Z,7.57
2022-11-29T19:06:40.993Z,7.54
2022-11-29T19:09:13.097Z,7.57
2022-11-29T19:11:40.555Z,7.46
2022-11-29T19:14:11.428Z,7.56
2022-11-29T19:16:41.579Z,7.58
2022-11-29T19:19:08.768Z,7.57
2022-11-29T19:21:36.058Z,7.57
2022-11-29T19:24:07.485Z,7.59
2022-11-29T19:26:34.605Z,7.60
2022-11-29T19:29:01.811Z,7.50
2022-11-29T19:31:29.286Z,7.58
2022-11-29T19:33:57.467Z,7.63
2022-11-29T19:36:29.772Z,7.56
2022-11-29T19:38:59.587Z,7.63
2022-11-29T19:41:29.800Z,7.63
2022-11-29T19:44:02.455Z,7.61
2022-11-29T19:46:38.136Z,7.35
2022-11-29T19:49:06.890Z,7.61
2022-11-29T19:51:35.475Z,7.58
2022-11-29T19:54:05.619Z,7.58
2022-11-29T19:56:33.064Z,7.60
2022-11-29T19:59:00.174Z,7.24
2022-11-29T20:01:40.205Z,7.61
2022-11-29T20:04:08.285Z,7.36
2022-11-29T20:06:35.678Z,7.60
2022-11-29T20:09:02.975Z,7.31
2022-11-29T20:11:30.673Z,7.60
2022-11-29T20:14:00.857Z,7.45
2022-11-29T20:16:29.667Z,7.41
2022-11-29T20:18:57.693Z,7.63
2022-11-29T20:21:30.358Z,7.64
2022-11-29T20:24:05.563Z,7.75
2022-11-29T20:26:35.890Z,7.66
2022-11-29T20:29:04.584Z,7.65
2022-11-29T20:31:32.943Z,7.52
2022-11-29T20:34:00.592Z,7.63
2022-11-29T20:36:46.212Z,7.64
2022-11-29T20:39:43.569Z,7.63
2022-11-29T20:42:10.606Z,7.64
2022-11-29T20:44:45.472Z,7.67
2022-11-29T20:47:20.844Z,7.66
2022-11-29T20:49:48.877Z,7.62
2022-11-29T20:52:32.047Z,7.63
2022-11-29T20:54:59.191Z,7.28
2022-11-29T20:57:26.231Z,7.64
2022-11-29T20:59:53.316Z,7.35
2022-11-29T21:02:21.011Z,7.62
2022-11-29T21:04:48.954Z,7.47
2022-11-29T21:07:16.464Z,7.63
2022-11-29T21:09:43.583Z,7.64
2022-11-29T21:12:11.232Z,7.59
2022-11-29T21:14:38.655Z,7.60
2022-11-29T21:17:06.554Z,7.39
2022-11-29T21:19:34.185Z,7.55
2022-11-29T21:22:23.178Z,7.56
2022-11-29T21:25:14.250Z,7.56
2022-11-29T21:27:41.821Z,7.55
2022-11-29T21:30:21.726Z,7.60
2022-11-29T21:32:49.563Z,7.58
2022-11-29T21:35:17.289Z,7.62
2022-11-29T21:37:45.268Z,7.59
2022-11-29T21:40:13.625Z,7.63
2022-11-29T21:42:41.062Z,7.60
2022-11-29T21:45:14.800Z,7.62
2022-11-29T21:47:43.992Z,7.54
2022-11-29T21:50:12.205Z,7.52
2022-11-29T21:52:39.342Z,7.55
2022-11-29T21:55:06.626Z,7.53
2022-11-29T21:57:33.713Z,7.55
2022-11-29T22:00:00.860Z,7.56
2022-11-29T22:02:27.976Z,7.49
2022-11-29T22:04:55.067Z,7.51
2022-11-29T22:07:22.099Z,7.50
2022-11-29T22:09:49.140Z,7.48
2022-11-29T22:12:33.171Z,7.46
2022-11-29T22:15:01.633Z,7.50
2022-11-29T22:17:28.743Z,7.50
2022-11-29T22:19:55.755Z,6.99
2022-11-29T22:22:23.642Z,7.50
2022-11-29T22:24:53.085Z,7.44
2022-11-29T22:27:20.695Z,7.47
2022-11-29T22:29:47.832Z,7.48
2022-11-29T22:32:15.192Z,7.56
2022-11-29T22:34:42.472Z,7.62
2022-11-29T22:37:09.698Z,7.56
2022-11-29T22:39:36.685Z,7.49
2022-11-29T22:42:03.819Z,7.39
2022-11-29T22:44:31.229Z,7.33
2022-11-29T22:46:58.327Z,7.26
2022-11-29T22:49:25.531Z,7.25
2022-11-29T22:51:53.345Z,7.45
2022-11-29T22:54:20.614Z,7.43
2022-11-29T22:56:47.739Z,7.43
2022-11-29T22:59:14.744Z,7.43
2022-11-29T23:01:42.470Z,7.42
2022-11-29T23:04:11.155Z,7.38
2022-11-29T23:06:41.389Z,7.44
2022-11-29T23:09:12.046Z,7.28
2022-11-29T23:11:39.285Z,7.02
2022-11-29T23:14:06.412Z,7.34
2022-11-29T23:16:33.658Z,7.09
2022-11-29T23:19:02.949Z,7.38
2022-11-29T23:21:32.702Z,7.47
2022-11-29T23:24:00.862Z,7.48
2022-11-29T23:26:30.612Z,7.49
2022-11-29T23:28:58.350Z,7.43
2022-11-29T23:31:25.495Z,7.44
2022-11-29T23:33:52.593Z,7.44
2022-11-29T23:36:20.032Z,7.42
2022-11-29T23:38:47.451Z,7.36
2022-11-29T23:41:14.844Z,7.25
2022-11-29T23:43:42.341Z,7.29
2022-11-29T23:46:13.625Z,6.97
2022-11-29T23:48:41.416Z,7.38
2022-11-29T23:51:09.158Z,7.32
2022-11-29T23:53:36.437Z,7.38
2022-11-29T23:56:06.773Z,7.38
2022-11-29T23:58:35.621Z,7.42
